Flight Track Log - Related Links

Times and Time Zones

All times are in EDT time to prevent confusion due to time zone crossing. See the RPA3159 flight status page for this flight to view local times or setup timezone preferences in your user account.

Time Position Orientation Groundspeed Altitude Reporting Facility
EDT Latitude Longitude Course Direction KTS MPH feet Rate Location/Type
Sun 11:27:00 AM 44.2058 -73.2500 180° South  Level FlightAware Approximate
Sun 11:28:00 AM 44.1180 -73.2808 195° South  Level FlightAware Approximate
Sun 11:28:14 AM 44.3894 -73.2942 195° South 279 321 9,800  Level Boston Center
Sun 11:29:00 AM 44.0302 -73.3122 194° South  Level FlightAware Approximate
Sun 11:29:14 AM 44.3142 -73.3192 193° South 276 318 11,900  Level Boston Center
Sun 11:30:00 AM 43.9420 -73.3416 193° South  Level FlightAware Approximate
Sun 11:30:14 AM 44.2328 -73.3469 194° South 298 343 14,800  Level Boston Center
Sun 11:31:00 AM 43.8543 -73.3735 195° South  Level FlightAware Approximate
Sun 11:31:14 AM 44.1511 -73.3775 195° South 304 350 17,600  Level Boston Center
Sun 11:32:00 AM 43.7668 -73.4063 195° South  Level FlightAware Approximate
Sun 11:32:14 AM 44.0736 -73.4400 210° Southwest 311 358 20,100  Level Boston Center
Sun 11:33:00 AM 43.6792 -73.4391 195° South  Level FlightAware Approximate
Sun 11:33:14 AM 44.0003 -73.5022 211° Southwest 323 372 22,300  Level Boston Center
Sun 11:34:14 AM 43.9203 -73.5669 210° Southwest 328 377 24,300 1,850 Climbing Boston Center
Sun 11:35:14 AM 43.8364 -73.6375 211° Southwest 328 377 26,000 850 Climbing Boston Center
Sun 11:36:14 AM 43.7586 -73.7019 211° Southwest 328 377 26,000  Level Boston Center
Sun 11:37:14 AM 43.6786 -73.7636 209° Southwest 328 377 26,000  Level Boston Center
Sun 11:38:14 AM 43.6008 -73.8278 211° Southwest 328 377 26,000  Level Boston Center
Sun 11:39:14 AM 43.5228 -73.8917 211° Southwest 328 377 26,000  Level Boston Center
Sun 11:40:14 AM 43.4469 -73.9531 210° Southwest 328 377 26,000  Level Boston Center
Sun 11:41:14 AM 43.3669 -74.0167 210° Southwest 328 377 26,000  Level Boston Center
Sun 11:42:14 AM 43.2889 -74.0803 211° Southwest 328 377 26,000  Level Boston Center
Sun 11:43:14 AM 43.2108 -74.1436 211° Southwest 328 377 26,000  Level Boston Center
Sun 11:44:14 AM 43.1350 -74.2042 210° Southwest 328 377 26,000  Level Boston Center
Sun 11:45:14 AM 43.0567 -74.2700 212° Southwest 328 377 26,000  Level Boston Center
Sun 11:46:14 AM 42.9786 -74.3331 211° Southwest 328 377 26,000  Level Boston Center
Sun 11:47:14 AM 42.9111 -74.3878 211° Southwest 328 377 26,000  Level Boston Center
Sun 11:48:14 AM 42.8308 -74.4503 210° Southwest 328 377 26,000  Level Boston Center
Sun 11:49:14 AM 42.7544 -74.5128 211° Southwest 328 377 26,000  Level Boston Center
Sun 11:50:14 AM 42.6742 -74.5750 210° Southwest 328 377 26,000  Level Boston Center
Sun 11:51:14 AM 42.5958 -74.6344 209° Southwest 328 377 26,000  Level Boston Center
Sun 11:52:14 AM 42.5197 -74.6967 211° Southwest 328 377 26,000  Level Boston Center
Sun 11:53:14 AM 42.4436 -74.7556 210° Southwest 328 377 26,000 -113 Level Boston Center
Sun 11:54:53 AM 42.3089 -74.8564 209° Southwest 321 369 25,700 -755 Descending New York Center
Sun 11:55:53 AM 42.2319 -74.9158 210° Southwest 327 376 24,000 -1,600 Descending New York Center
Sun 11:56:53 AM 42.1633 -74.9703 210° Southwest 313 360 22,500 -1,736 Descending New York Center
Sun 11:57:54 AM 42.0819 -75.0406 213° Southwest 319 367 20,500 -1,736 Descending New York Center
Sun 11:58:54 AM 42.0089 -75.1028 212° Southwest 319 367 19,000 -744 Descending New York Center
Sun 11:59:55 AM 41.9339 -75.1619 210° Southwest 313 360 19,000  Level New York Center
Sun 12:00:53 PM 41.8694 -75.2133 211° Southwest 312 359 19,000  Level New York Center
Sun 12:01:54 PM 41.7964 -75.2725 211° Southwest 312 359 19,000 -689 Level New York Center
Sun 12:02:55 PM 41.7147 -75.3392 211° Southwest 312 359 17,600 -1,412 Descending New York Center
Sun 12:03:53 PM 41.6417 -75.3981 211° Southwest 312 359 16,200 -1,513 Descending New York Center
Sun 12:04:54 PM 41.5686 -75.4542 210° Southwest 307 353 14,600 -1,537 Descending New York Center
Sun 12:05:54 PM 41.5042 -75.5078 212° Southwest 313 360 13,100 -1,339 Descending New York Center
Sun 12:06:55 PM 41.4308 -75.5661 211° Southwest 313 360 11,900 -605 Descending New York Center
Sun 12:07:53 PM 41.3600 -75.6219 211° Southwest 306 352 11,900 -50 Level New York Center
Sun 12:08:54 PM 41.2844 -75.6800 210° Southwest 311 358 11,800 -885 Descending New York Center
Sun 12:09:55 PM 41.1906 -75.6842 182° South 308 354 10,100 -958 Descending New York Center
Sun 12:10:53 PM 41.1106 -75.6564 165° South 318 366 9,900 -101 Descending New York Center
Sun 12:11:54 PM 41.0222 -75.6253 165° South 326 375 9,900 50 Level New York Center
Sun 12:12:54 PM 40.9256 -75.5936 166° South 333 383 10,000 50 Climbing New York Center
Sun 12:13:55 PM 40.8372 -75.5628 165° South 333 383 10,000  Level New York Center
Sun 12:14:55 PM 40.7489 -75.5319 165° South 333 383 10,000  Level New York Center
Sun 12:15:56 PM 40.6689 -75.5044 165° South 333 383 10,000  Level New York Center
Sun 12:16:53 PM 40.5844 -75.4767 166° South 323 372 10,000  Level New York Center
Sun 12:17:54 PM 40.5022 -75.4492 166° South 317 365 10,000 -246 Level New York Center
Sun 12:18:55 PM 40.4325 -75.4200 162° South 281 323 9,500 -1,140 Descending New York Center
Sun 12:19:55 PM 40.3592 -75.3794 157° South 281 323 7,700 -1,240 Descending New York Center
Sun 12:20:56 PM 40.2836 -75.3364 157° South 281 323 7,000 -454 Descending New York Center
Sun 12:21:54 PM 40.2164 -75.2994 157° South 283 326 6,800 -504 Descending New York Center
Sun 12:22:55 PM 40.1428 -75.2592 157° South 283 326 6,000 -403 Descending New York Center
Sun 12:23:53 PM 40.0675 -75.2136 155° Southeast 283 326 6,000  Level New York Center
Sun 12:24:40 PM 40.0167 -75.1833 155° Southeast 239 275 6,000  Level Philadelphia TRACON
Sun 12:25:40 PM 39.9833 -75.1167 123° Southeast 225 259 6,000 -524 Level Philadelphia TRACON
Sun 12:26:46 PM 40.0000 -75.0333 75° East 208 239 4,900 -1,228 Descending Philadelphia TRACON
Sun 12:27:47 PM 40.0000 -74.9667 90° East 194 223 3,400 -1,000 Descending Philadelphia TRACON
Sun 12:28:40 PM 39.9500 -74.9833 194° South 177 204 3,000 -224 Descending Philadelphia TRACON
Sun 12:29:34 PM 39.9167 -75.0167 217° Southwest 176 203 3,000 -313 Level Philadelphia TRACON
Sun 12:30:35 PM 39.9000 -75.0833 252° West 164 189 2,400 -590 Descending Philadelphia TRACON

Login

Don't have an account? Register now (free) for customized features, flight alerts, and more!